Time;durP1;ratioP1;P1;durP2;ratioP2;P2;SDS_P1;SDS_P2;PMS_P1;PMS_P2;Temp;Humidity;BMP_temperature;BMP_pressure;BME280_temperature;BME280_humidity;BME280_pressure;Samples;Min_cycle;Max_cycle;Signal;HPM_P1;HPM_P2
2023/10/20 00:01:02;;;;;;;7.00;6.18;;;;;;;11.66;100.00;63200.47;5009058;28;20242;-77
2023/10/20 00:03:29;;;;;;;6.80;5.82;;;;;;;11.67;100.00;63200.97;5003330;28;20236;-77
2023/10/20 00:05:58;;;;;;;8.10;7.28;;;;;;;11.61;100.00;63190.16;5001851;28;20207;-76
2023/10/20 00:08:25;;;;;;;9.73;8.20;;;;;;;11.59;100.00;63191.16;4988971;28;20267;-78
2023/10/20 00:10:57;;;;;;;10.85;7.60;;;;;;;11.59;100.00;63186.06;5005920;28;20230;-77
2023/10/20 00:13:24;;;;;;;7.20;6.50;;;;;;;11.61;100.00;63193.22;5006025;28;20269;-76
2023/10/20 00:15:53;;;;;;;6.50;5.97;;;;;;;11.61;100.00;63195.28;5007949;28;20203;-77
2023/10/20 00:18:51;;;;;;;6.70;6.10;;;;;;;11.50;100.00;63181.84;5002130;28;20247;-76
2023/10/20 00:21:18;;;;;;;6.15;5.55;;;;;;;11.40;100.00;63173.50;5001784;28;20243;-76
2023/10/20 00:23:45;;;;;;;8.32;5.28;;;;;;;11.30;100.00;63160.63;5005933;28;20235;-76
2023/10/20 00:26:13;;;;;;;5.55;5.03;;;;;;;11.09;100.00;63141.94;4998239;28;20198;-77
2023/10/20 00:28:40;;;;;;;7.10;5.38;;;;;;;11.10;100.00;63148.06;5023705;28;20210;-77
2023/10/20 00:31:11;;;;;;;6.38;5.78;;;;;;;11.09;100.00;63138.84;5019586;28;20202;-77
2023/10/20 00:33:38;;;;;;;7.85;5.40;;;;;;;11.03;100.00;63130.09;5002390;28;20401;-78
2023/10/20 00:36:05;;;;;;;5.13;4.72;;;;;;;11.02;100.00;63131.63;5007233;28;20196;-77
2023/10/20 00:38:32;;;;;;;6.05;5.15;;;;;;;10.94;100.00;63128.44;5017985;28;20454;-76
2023/10/20 00:41:00;;;;;;;6.40;5.35;;;;;;;10.97;100.00;63126.44;5019489;28;20207;-78
2023/10/20 00:43:35;;;;;;;6.40;5.80;;;;;;;10.99;100.00;63139.19;5004946;28;20242;-78
2023/10/20 00:46:04;;;;;;;6.53;5.68;;;;;;;11.00;100.00;63135.16;5004929;28;20222;-78
2023/10/20 00:48:33;;;;;;;6.32;5.80;;;;;;;11.01;100.00;63133.13;5007161;28;20389;-76
2023/10/20 00:51:01;;;;;;;6.85;6.20;;;;;;;11.05;100.00;63137.25;5005938;28;20209;-77
2023/10/20 00:53:29;;;;;;;9.60;7.47;;;;;;;11.05;100.00;63140.34;5002041;28;20228;-77
2023/10/20 00:55:57;;;;;;;6.82;6.22;;;;;;;11.10;100.00;63145.50;5007267;28;20234;-78
2023/10/20 00:58:26;;;;;;;7.47;6.70;;;;;;;11.16;100.00;63151.72;5006286;28;20219;-76
2023/10/20 01:00:54;;;;;;;7.03;5.90;;;;;;;11.16;100.00;63151.22;5006629;28;20234;-78
2023/10/20 01:03:22;;;;;;;7.57;6.88;;;;;;;11.18;100.00;63148.19;5006694;28;20250;-78
2023/10/20 01:05:52;;;;;;;7.15;6.00;;;;;;;11.17;100.00;63144.59;5006314;28;20223;-77
2023/10/20 01:08:20;;;;;;;6.22;5.65;;;;;;;11.20;100.00;63150.75;5005334;28;20249;-78
2023/10/20 01:10:47;;;;;;;6.40;5.72;;;;;;;11.19;100.00;63149.75;5005818;28;20428;-76
2023/10/20 01:13:14;;;;;;;6.47;5.60;;;;;;;11.24;100.00;63157.47;5005986;28;20238;-76
2023/10/20 01:15:42;;;;;;;7.45;6.75;;;;;;;11.26;100.00;63156.47;5006400;28;20210;-78
2023/10/20 01:18:10;;;;;;;7.50;5.55;;;;;;;11.20;100.00;63150.75;5001297;28;20388;-77
2023/10/20 01:20:38;;;;;;;6.00;5.45;;;;;;;11.22;100.00;63157.94;5006715;28;20199;-78
2023/10/20 01:23:07;;;;;;;5.93;5.43;;;;;;;11.21;100.00;63153.84;5007362;28;20234;-79
2023/10/20 01:25:35;;;;;;;7.35;6.65;;;;;;;11.13;100.00;63143.00;5003554;28;20431;-76
2023/10/20 01:28:04;;;;;;;6.78;5.47;;;;;;;11.10;100.00;63140.41;5005495;28;20207;-76
2023/10/20 01:30:31;;;;;;;8.30;6.78;;;;;;;11.05;100.00;63137.78;5005896;28;20195;-76
2023/10/20 01:32:58;;;;;;;6.88;6.28;;;;;;;11.03;100.00;63135.19;5006527;28;20223;-77
2023/10/20 01:35:25;;;;;;;6.70;5.97;;;;;;;10.93;100.00;63122.28;5002700;28;20223;-77
2023/10/20 01:37:53;;;;;;;6.80;6.10;;;;;;;10.85;100.00;63117.09;5006583;28;20255;-77
2023/10/20 01:40:21;;;;;;;7.35;6.50;;;;;;;10.86;100.00;63118.09;5005883;28;20251;-77
2023/10/20 01:42:50;;;;;;;7.10;6.32;;;;;;;10.81;100.00;63107.84;5005992;28;20231;-77
2023/10/20 01:45:17;;;;;;;7.75;7.05;;;;;;;10.78;100.00;63112.38;5003941;28;20207;-77
2023/10/20 01:47:44;;;;;;;7.78;7.07;;;;;;;10.77;100.00;63108.28;5005980;28;20203;-77
2023/10/20 01:50:12;;;;;;;14.15;7.50;;;;;;;10.84;100.00;63116.03;5020178;28;20265;-77
2023/10/20 01:52:39;;;;;;;8.63;6.93;;;;;;;10.78;100.00;63109.84;5024929;28;20499;-75
2023/10/20 01:55:07;;;;;;;8.50;7.65;;;;;;;10.76;100.00;63110.31;5006183;28;20224;-77
2023/10/20 01:57:34;;;;;;;7.95;6.68;;;;;;;10.82;100.00;63113.97;5005270;28;20209;-76
2023/10/20 02:00:04;;;;;;;7.03;6.45;;;;;;;10.79;100.00;63110.88;5006279;28;20223;-77
2023/10/20 02:02:31;;;;;;;8.30;5.93;;;;;;;10.78;100.00;63109.84;5004700;28;20199;-77
2023/10/20 02:04:58;;;;;;;6.85;6.28;;;;;;;10.83;100.00;63114.47;4993774;28;20220;-78
2023/10/20 02:07:26;;;;;;;5.93;5.43;;;;;;;10.82;100.00;63113.97;5005791;28;20206;-78
2023/10/20 02:09:54;;;;;;;9.43;7.22;;;;;;;10.84;100.00;63116.03;5006051;28;20219;-76
2023/10/20 02:12:22;;;;;;;7.70;7.00;;;;;;;10.87;100.00;63116.09;4998284;28;20246;-78
2023/10/20 02:14:49;;;;;;;10.10;6.40;;;;;;;10.84;100.00;63115.50;4988664;28;20502;-78
2023/10/20 02:17:18;;;;;;;8.00;7.22;;;;;;;10.85;100.00;63117.09;5005427;28;20210;-76
2023/10/20 02:19:45;;;;;;;7.40;6.68;;;;;;;10.91;100.00;63123.28;5004347;28;20266;-75
2023/10/20 02:22:12;;;;;;;9.45;7.90;;;;;;;10.89;100.00;63118.16;5004509;28;20213;-77
2023/10/20 02:24:39;;;;;;;7.00;6.30;;;;;;;11.01;100.00;63133.13;5005205;28;20442;-77
2023/10/20 02:27:06;;;;;;;8.32;7.50;;;;;;;11.10;100.00;63140.41;5009942;28;20520;-79
2023/10/20 02:29:34;;;;;;;7.85;6.43;;;;;;;11.06;100.00;63135.75;5003685;28;20258;-77
2023/10/20 02:32:01;;;;;;;7.55;6.72;;;;;;;11.06;100.00;63141.34;5010103;28;20207;-78
2023/10/20 02:34:30;;;;;;;8.57;5.88;;;;;;;11.04;100.00;63136.75;5014752;28;20248;-78
2023/10/20 02:36:57;;;;;;;7.55;6.65;;;;;;;11.05;100.00;63140.34;5028719;28;20205;-77
2023/10/20 02:39:24;;;;;;;7.30;6.60;;;;;;;11.07;100.00;63139.84;5013740;28;20250;-77
2023/10/20 02:41:51;;;;;;;6.35;5.82;;;;;;;11.04;100.00;63133.69;5011384;28;20202;-75
2023/10/20 02:44:18;;;;;;;7.30;6.55;;;;;;;10.99;100.00;63131.56;5021925;28;20234;-77
2023/10/20 02:46:45;;;;;;;7.35;6.63;;;;;;;10.97;100.00;63128.97;5029213;28;20191;-78
2023/10/20 02:49:12;;;;;;;7.78;7.07;;;;;;;10.99;100.00;63136.16;5008604;28;20223;-75
2023/10/20 02:51:41;;;;;;;7.30;6.00;;;;;;;11.06;100.00;63138.81;5007547;28;20199;-77
2023/10/20 02:54:09;;;;;;;16.25;7.07;;;;;;;10.99;100.00;63134.09;5007984;28;20218;-78
2023/10/20 02:56:37;;;;;;;7.07;6.38;;;;;;;10.92;100.00;63121.25;5020870;28;20209;-79
2023/10/20 02:59:04;;;;;;;9.35;6.65;;;;;;;10.93;100.00;63125.34;5009983;28;20223;-77
2023/10/20 03:01:31;;;;;;;9.13;6.93;;;;;;;10.84;100.00;63116.03;5004731;28;20246;-76
2023/10/20 03:03:59;;;;;;;7.55;6.85;;;;;;;10.90;100.00;63119.72;4990067;28;20228;-78
2023/10/20 03:06:26;;;;;;;7.25;6.28;;;;;;;10.81;100.00;63118.03;5000939;28;20199;-77
2023/10/20 03:08:55;;;;;;;8.43;6.80;;;;;;;10.80;100.00;63117.00;5009888;28;20282;-76
2023/10/20 03:11:22;;;;;;;7.40;6.70;;;;;;;10.77;100.00;63111.34;5022472;28;20196;-77
2023/10/20 03:13:49;;;;;;;7.32;6.72;;;;;;;10.69;100.00;63100.50;5008839;28;20295;-78
2023/10/20 03:16:16;;;;;;;7.22;6.50;;;;;;;10.72;100.00;63105.63;5007075;28;20200;-78
2023/10/20 03:18:43;;;;;;;6.90;6.25;;;;;;;10.74;100.00;63108.22;5002638;28;20431;-77
2023/10/20 03:21:10;;;;;;;6.80;6.07;;;;;;;10.72;100.00;63106.16;5001306;28;20235;-76
2023/10/20 03:23:39;;;;;;;7.65;6.75;;;;;;;10.73;100.00;63101.59;4999324;28;20278;-77
2023/10/20 03:26:12;;;;;;;8.60;6.78;;;;;;;10.76;100.00;63105.22;5009134;28;20195;-77
2023/10/20 03:28:40;;;;;;;11.55;7.40;;;;;;;10.78;100.00;63106.75;5008450;28;20230;-78
2023/10/20 03:31:08;;;;;;;9.18;7.10;;;;;;;10.74;100.00;63100.06;4996886;28;20192;-78
2023/10/20 03:33:35;;;;;;;9.15;6.72;;;;;;;10.69;100.00;63100.50;5001742;28;20245;-77
2023/10/20 03:36:04;;;;;;;7.45;6.53;;;;;;;10.78;100.00;63109.31;5009300;28;20214;-77
2023/10/20 03:38:32;;;;;;;8.55;7.05;;;;;;;10.70;100.00;63101.03;5008339;28;20250;-79
2023/10/20 03:41:07;;;;;;;9.02;6.93;;;;;;;10.75;100.00;63108.75;5027897;28;20393;-77
2023/10/20 03:43:36;;;;;;;10.52;7.43;;;;;;;10.77;100.00;63108.78;5008931;28;20246;-78
2023/10/20 03:46:04;;;;;;;7.70;6.95;;;;;;;10.72;100.00;63103.09;5009448;28;20216;-79
2023/10/20 03:48:33;;;;;;;7.40;6.40;;;;;;;10.70;100.00;63101.03;5000709;28;20216;-76
2023/10/20 03:51:00;;;;;;;9.20;6.80;;;;;;;10.71;100.00;63102.06;5006257;28;20204;-77
2023/10/20 03:53:32;;;;;;;6.45;5.80;;;;;;;10.72;100.00;63106.16;5008953;28;20219;-78
2023/10/20 03:56:00;;;;;;;8.48;6.43;;;;;;;10.75;100.00;63106.22;5025596;28;20209;-76
2023/10/20 03:58:29;;;;;;;6.30;5.60;;;;;;;10.76;100.00;63107.75;5018264;28;20219;-77
2023/10/20 04:01:01;;;;;;;7.50;6.53;;;;;;;10.74;100.00;63105.16;5007805;28;20226;-76
2023/10/20 04:03:30;;;;;;;7.53;6.38;;;;;;;10.73;100.00;63104.66;5002621;28;20248;-77
2023/10/20 04:05:58;;;;;;;11.40;8.50;;;;;;;10.76;100.00;63114.88;5010262;28;20258;-78
2023/10/20 04:08:27;;;;;;;10.35;7.60;;;;;;;10.75;100.00;63106.22;5007227;28;20269;-79
2023/10/20 04:10:59;;;;;;;12.48;8.10;;;;;;;10.72;100.00;63106.16;5009427;28;20214;-77
2023/10/20 04:13:26;;;;;;;9.98;7.45;;;;;;;10.70;100.00;63101.53;5007802;28;20220;-76
2023/10/20 04:15:53;;;;;;;8.65;7.32;;;;;;;10.63;100.00;63089.19;5008179;28;20465;-77
2023/10/20 04:18:23;;;;;;;8.85;6.70;;;;;;;10.59;100.00;63089.66;5000218;28;20227;-77
2023/10/20 04:20:51;;;;;;;9.75;7.15;;;;;;;10.59;100.00;63090.16;4997745;28;20203;-76
2023/10/20 04:23:20;;;;;;;7.13;6.43;;;;;;;10.66;100.00;63094.34;5011396;28;21524;-79
2023/10/20 04:25:52;;;;;;;8.32;7.15;;;;;;;10.68;100.00;63091.84;5007394;28;20258;-77
2023/10/20 04:28:28;;;;;;;10.63;7.32;;;;;;;10.73;100.00;63101.59;5007139;28;20297;-77
2023/10/20 04:42:22;;;;;;;12.40;9.32;;;;;;;10.25;100.00;63057.53;5005973;28;20443;-79
2023/10/20 04:53:10;;;;;;;9.05;7.68;;;;;;;10.11;100.00;63040.50;5008150;28;20397;-80
2023/10/20 04:58:23;;;;;;;11.93;8.45;;;;;;;10.10;100.00;63036.91;5010422;28;20235;-78
2023/10/20 05:01:01;;;;;;;13.18;8.05;;;;;;;10.13;100.00;63047.66;5020753;28;20213;-77
2023/10/20 05:03:34;;;;;;;13.35;10.80;;;;;;;10.23;100.00;63052.91;5028116;28;20218;-77
2023/10/20 05:06:19;;;;;;;13.32;9.00;;;;;;;10.29;100.00;63061.66;4995728;28;20500;-77
2023/10/20 05:08:48;;;;;;;9.07;7.13;;;;;;;10.47;100.00;63072.66;5003398;28;20281;-78
2023/10/20 05:11:15;;;;;;;12.65;7.70;;;;;;;10.59;100.00;63084.56;4996112;28;20196;-79
2023/10/20 05:13:42;;;;;;;9.77;7.32;;;;;;;10.67;100.00;63101.00;4989749;28;20220;-78
2023/10/20 05:16:10;;;;;;;7.65;6.80;;;;;;;10.82;100.00;63113.97;4988315;28;20312;-78
2023/10/20 05:18:38;;;;;;;12.52;7.70;;;;;;;10.90;100.00;63121.72;5007948;28;20418;-76
2023/10/20 05:21:11;;;;;;;7.97;7.18;;;;;;;11.03;100.00;63135.19;5003695;28;20204;-77
2023/10/20 05:23:39;;;;;;;7.88;6.57;;;;;;;11.10;100.00;63142.44;5005468;28;20283;-78
2023/10/20 05:26:06;;;;;;;7.47;6.82;;;;;;;11.15;100.00;63147.59;5001558;28;20199;-79
2023/10/20 05:28:34;;;;;;;11.73;7.53;;;;;;;11.17;100.00;63149.69;4994165;28;20290;-80
2023/10/20 05:31:00;;;;;;;7.75;6.68;;;;;;;11.26;100.00;63159.53;5008184;28;20267;-79
2023/10/20 05:33:28;;;;;;;8.27;7.15;;;;;;;11.23;100.00;63153.88;5006046;28;20258;-78
2023/10/20 05:36:01;;;;;;;8.32;7.47;;;;;;;11.26;100.00;63157.00;4993052;28;20239;-79
2023/10/20 05:38:29;;;;;;;9.85;8.80;;;;;;;11.25;100.00;63158.50;4987948;28;20271;-80
2023/10/20 05:40:59;;;;;;;13.95;9.20;;;;;;;11.27;100.00;63154.94;4987984;28;20220;-77
2023/10/20 05:43:26;;;;;;;11.50;8.57;;;;;;;11.33;100.00;63164.25;4988881;28;20253;-79
2023/10/20 05:45:54;;;;;;;18.30;10.25;;;;;;;11.47;100.00;63185.88;4987325;28;20543;-78
2023/10/20 05:48:21;;;;;;;16.20;11.63;;;;;;;11.59;100.00;63190.66;4987053;28;20251;-78
2023/10/20 05:50:54;;;;;;;14.18;9.68;;;;;;;11.65;100.00;63198.91;4988812;28;20196;-77
2023/10/20 05:53:22;;;;;;;14.20;11.45;;;;;;;11.76;100.00;63210.81;4991306;28;20278;-79
2023/10/20 05:55:51;;;;;;;18.33;10.65;;;;;;;11.87;100.00;63221.72;4997290;28;20379;-80
2023/10/20 05:58:18;;;;;;;14.40;10.00;;;;;;;11.98;100.00;63230.53;4987374;28;20239;-79
2023/10/20 06:00:45;;;;;;;14.90;9.38;;;;;;;12.04;100.00;63239.31;4987499;28;20246;-79
2023/10/20 06:03:12;;;;;;;16.30;10.32;;;;;;;12.11;100.00;63246.56;4998427;28;20392;-80
2023/10/20 06:05:39;;;;;;;14.18;9.10;;;;;;;12.19;100.00;63254.88;5004429;28;20259;-80
2023/10/20 06:08:07;;;;;;;10.90;9.45;;;;;;;12.23;100.00;63259.53;4988146;28;20207;-79
2023/10/20 06:10:34;;;;;;;13.65;8.98;;;;;;;12.38;100.00;63272.00;4988778;28;20504;-78
2023/10/20 06:13:04;;;;;;;13.80;8.93;;;;;;;12.48;100.00;63282.91;5001461;28;20204;-79
2023/10/20 06:15:31;;;;;;;10.10;8.63;;;;;;;12.65;100.00;63300.00;4989467;28;20200;-78
2023/10/20 06:17:58;;;;;;;10.38;8.73;;;;;;;12.85;100.00;63325.34;4988802;28;20222;-78
2023/10/20 06:20:27;;;;;;;13.48;8.10;;;;;;;13.01;100.00;63339.38;4991903;28;20422;-79
2023/10/20 06:22:55;;;;;;;9.00;7.72;;;;;;;13.19;100.00;63358.06;4998082;28;20344;-78
2023/10/20 06:25:22;;;;;;;9.45;8.00;;;;;;;13.26;100.00;63365.31;5002177;28;20290;-79
2023/10/20 06:27:49;;;;;;;9.65;8.57;;;;;;;13.34;100.00;63376.19;5008815;28;20203;-79
2023/10/20 06:30:21;;;;;;;12.32;8.57;;;;;;;13.55;100.00;63397.97;5005217;28;20838;-79
2023/10/20 06:32:56;;;;;;;12.48;8.13;;;;;;;13.78;100.00;63421.84;4988149;28;20223;-78
2023/10/20 06:35:32;;;;;;;9.82;8.57;;;;;;;13.98;100.00;63437.47;4989830;28;20206;-80
2023/10/20 06:38:11;;;;;;;8.23;7.50;;;;;;;14.22;100.00;63467.00;4990626;28;20204;-80
2023/10/20 06:40:40;;;;;;;7.13;6.28;;;;;;;14.39;100.00;63487.75;5005206;28;20199;-78
2023/10/20 06:43:08;;;;;;;8.75;6.63;;;;;;;14.67;100.00;63511.19;5003537;28;20211;-79
2023/10/20 06:45:36;;;;;;;7.25;6.53;;;;;;;14.77;100.00;63519.03;4988010;28;20298;-79
2023/10/20 06:48:04;;;;;;;9.15;6.82;;;;;;;14.94;100.00;63539.75;4994408;28;20207;-76
2023/10/20 06:50:31;;;;;;;8.32;6.63;;;;;;;15.15;100.00;63561.06;5000729;28;20271;-79
2023/10/20 06:52:59;;;;;;;8.63;5.93;;;;;;;15.39;100.00;63582.91;4990878;28;20255;-78
2023/10/20 06:55:27;;;;;;;5.60;5.20;;;;;;;15.29;100.00;63572.53;4992533;28;20187;-80
2023/10/20 06:57:54;;;;;;;6.85;5.78;;;;;;;15.46;100.00;63593.28;4992555;28;20215;-81
2023/10/20 07:00:22;;;;;;;6.68;5.45;;;;;;;15.60;100.00;63607.84;4990135;28;20207;-79
2023/10/20 07:02:51;;;;;;;8.20;5.63;;;;;;;15.78;100.00;63628.63;5001422;28;20522;-80
2023/10/20 07:05:18;;;;;;;8.80;6.70;;;;;;;15.84;99.10;63632.28;5009002;28;20233;-81
2023/10/20 07:07:45;;;;;;;6.68;5.55;;;;;;;15.71;99.33;63621.84;5000567;28;20411;-81
2023/10/20 07:10:12;;;;;;;5.35;4.90;;;;;;;15.79;99.77;63629.66;5008748;28;20229;-80
2023/10/20 07:12:39;;;;;;;6.18;5.65;;;;;;;15.87;100.00;63632.84;5008842;28;20198;-80
2023/10/20 07:15:07;;;;;;;5.97;4.95;;;;;;;16.10;100.00;63661.91;5005622;28;20254;-81
2023/10/20 07:17:34;;;;;;;7.53;5.50;;;;;;;16.15;98.44;63664.53;4993337;28;20297;-79
2023/10/20 07:20:05;;;;;;;7.30;5.68;;;;;;;16.17;97.34;63664.56;5006783;28;20238;-80
2023/10/20 07:22:32;;;;;;;5.85;5.35;;;;;;;16.40;97.68;63695.66;5007176;28;20199;-79
2023/10/20 07:24:59;;;;;;;6.28;5.30;;;;;;;16.36;98.38;63685.84;5003243;28;20301;-80
2023/10/20 07:27:27;;;;;;;5.30;5.00;;;;;;;16.50;96.85;63703.50;5020844;28;20410;-81
2023/10/20 07:29:57;;;;;;;7.88;5.30;;;;;;;16.38;94.95;63688.44;5003145;28;20233;-82
2023/10/20 07:32:25;;;;;;;8.00;5.10;;;;;;;16.35;94.86;63687.91;5012126;28;20202;-81
2023/10/20 07:34:52;;;;;;;5.80;5.25;;;;;;;16.44;96.70;63689.56;5007044;28;20234;-81
2023/10/20 07:37:22;;;;;;;5.90;4.78;;;;;;;16.50;94.49;63700.94;5009438;28;20206;-79
2023/10/20 07:39:50;;;;;;;7.30;5.55;;;;;;;16.32;94.37;63679.13;4997436;28;20258;-79
2023/10/20 07:42:19;;;;;;;6.22;5.20;;;;;;;16.47;96.37;63697.81;4992695;28;20200;-79
2023/10/20 07:44:47;;;;;;;8.88;5.68;;;;;;;16.49;92.98;63699.91;5007688;28;20284;-80
2023/10/20 07:47:14;;;;;;;8.60;6.03;;;;;;;16.45;93.71;63692.63;4997699;28;20226;-81
2023/10/20 07:49:42;;;;;;;6.05;4.82;;;;;;;16.59;92.14;63709.78;5001175;28;20226;-79
2023/10/20 07:52:09;;;;;;;6.05;5.43;;;;;;;16.68;93.12;63719.69;4996769;28;20227;-81
2023/10/20 07:54:37;;;;;;;8.23;5.50;;;;;;;16.76;91.76;63730.03;4999705;28;20274;-80
2023/10/20 07:57:05;;;;;;;5.35;4.90;;;;;;;16.93;92.93;63743.09;4998032;28;20215;-80
2023/10/20 07:59:32;;;;;;;6.53;5.93;;;;;;;17.00;91.95;63752.44;5000225;28;20294;-80
2023/10/20 08:01:59;;;;;;;9.77;5.57;;;;;;;16.97;91.53;63749.84;5005326;28;20214;-81
2023/10/20 08:04:26;;;;;;;6.70;5.05;;;;;;;17.07;91.85;63759.72;4998936;28;20449;-79
2023/10/20 08:06:55;;;;;;;7.78;4.88;;;;;;;16.90;90.05;63744.63;5000691;28;20219;-80
2023/10/20 08:09:22;;;;;;;7.22;5.00;;;;;;;17.16;90.44;63769.63;5005768;28;20230;-79
2023/10/20 08:11:50;;;;;;;6.55;4.78;;;;;;;17.41;87.98;63797.72;5005313;28;20199;-80
2023/10/20 08:14:20;;;;;;;4.40;4.10;;;;;;;17.63;86.04;63818.06;5003191;28;20286;-80
2023/10/20 08:16:47;;;;;;;10.15;6.10;;;;;;;17.80;82.73;63838.34;5001927;28;20266;-80
2023/10/20 08:19:14;;;;;;;5.13;4.68;;;;;;;17.53;82.01;63809.69;5000880;28;20219;-81
2023/10/20 08:21:42;;;;;;;7.95;5.65;;;;;;;17.57;84.49;63809.22;4998236;28;20195;-82
2023/10/20 08:24:10;;;;;;;4.57;4.22;;;;;;;17.24;82.72;63775.38;4998098;28;20223;-80
2023/10/20 08:26:39;;;;;;;5.68;4.90;;;;;;;16.84;87.16;63736.31;5002789;28;20585;-80
2023/10/20 08:29:11;;;;;;;5.35;4.85;;;;;;;16.96;86.46;63748.81;5006144;28;20226;-79
2023/10/20 08:31:38;;;;;;;5.22;4.68;;;;;;;17.03;88.41;63753.50;5001044;28;20211;-79
2023/10/20 08:34:05;;;;;;;6.60;4.82;;;;;;;17.27;87.26;63780.56;5004221;28;20290;-81
2023/10/20 08:36:32;;;;;;;5.07;4.70;;;;;;;17.41;85.86;63797.19;4998706;28;20203;-82
2023/10/20 08:39:01;;;;;;;9.30;4.72;;;;;;;17.51;86.18;63808.16;4999018;28;20483;-81
2023/10/20 08:41:29;;;;;;;8.45;4.35;;;;;;;17.64;84.39;63816.00;5003426;28;20195;-81
2023/10/20 08:43:57;;;;;;;4.78;4.38;;;;;;;17.70;84.62;63827.94;4999570;28;20241;-79
2023/10/20 08:46:27;;;;;;;6.15;4.68;;;;;;;17.73;82.94;63833.09;5005198;28;20230;-81
2023/10/20 08:48:57;;;;;;;7.57;5.10;;;;;;;17.70;84.08;63830.50;4992045;28;20366;-81
2023/10/20 08:51:25;;;;;;;4.53;4.10;;;;;;;17.68;85.54;63822.75;5004913;28;20278;-80
2023/10/20 08:53:52;;;;;;;5.35;4.85;;;;;;;17.61;86.93;63815.97;5004081;28;20237;-81
2023/10/20 08:56:21;;;;;;;8.32;5.00;;;;;;;17.64;85.48;63819.09;5000463;28;20209;-80
2023/10/20 08:58:48;;;;;;;7.75;5.18;;;;;;;17.62;84.86;63817.00;5002336;28;20227;-80
2023/10/20 09:01:16;;;;;;;8.05;5.10;;;;;;;17.59;84.67;63816.47;4994488;28;20203;-81
2023/10/20 09:03:50;;;;;;;6.40;5.13;;;;;;;17.52;85.03;63808.66;4999932;28;20302;-81
2023/10/20 09:06:17;;;;;;;8.57;5.50;;;;;;;17.47;85.20;63803.97;4998436;28;20242;-81
2023/10/20 09:08:47;;;;;;;6.20;5.60;;;;;;;17.50;84.95;63801.94;4999357;28;20231;-82
2023/10/20 09:11:14;;;;;;;12.00;5.75;;;;;;;17.19;85.59;63772.75;4998963;28;20199;-81
2023/10/20 09:13:44;;;;;;;8.75;5.38;;;;;;;17.26;87.65;63779.50;4999616;28;20236;-81
2023/10/20 09:16:13;;;;;;;5.38;4.88;;;;;;;17.47;87.04;63806.03;5000649;28;20199;-80
2023/10/20 09:18:46;;;;;;;5.43;4.90;;;;;;;17.50;84.17;63806.59;4998852;28;20463;-81
2023/10/20 09:21:14;;;;;;;6.80;5.53;;;;;;;17.56;84.26;63815.91;4991067;28;20211;-80
2023/10/20 09:23:41;;;;;;;9.38;5.97;;;;;;;17.54;85.09;63808.69;5001977;28;20432;-80
2023/10/20 09:26:09;;;;;;;7.65;5.05;;;;;;;17.73;84.40;63833.09;4996611;28;20231;-80
2023/10/20 09:28:36;;;;;;;5.30;4.90;;;;;;;17.89;84.32;63844.63;4993625;28;20239;-81
2023/10/20 09:31:06;;;;;;;5.43;4.95;;;;;;;18.09;82.65;63860.28;4995970;28;20195;-79
2023/10/20 09:33:33;;;;;;;7.07;5.20;;;;;;;17.97;82.38;63850.38;5002035;28;20250;-78
2023/10/20 09:36:03;;;;;;;7.07;4.68;;;;;;;18.30;81.92;63893.00;5003790;28;20221;-81
2023/10/20 09:38:34;;;;;;;5.15;4.75;;;;;;;18.64;79.01;63922.75;5002853;28;20412;-80
2023/10/20 09:41:11;;;;;;;5.72;5.22;;;;;;;18.83;77.62;63940.00;4997972;28;20234;-79
2023/10/20 09:43:46;;;;;;;7.22;4.55;;;;;;;19.04;77.12;63961.34;4999233;28;20240;-81
2023/10/20 09:46:21;;;;;;;16.95;5.07;;;;;;;19.10;75.89;63970.19;5000354;28;20226;-80
2023/10/20 09:48:53;;;;;;;7.25;5.22;;;;;;;19.30;73.90;63991.59;4994828;28;20242;-80
2023/10/20 09:51:23;;;;;;;6.47;4.38;;;;;;;19.33;73.04;63994.72;4998486;28;20259;-79
2023/10/20 09:53:53;;;;;;;9.80;5.20;;;;;;;19.32;72.14;63995.75;4998366;28;20325;-80
2023/10/20 09:56:22;;;;;;;7.35;4.40;;;;;;;19.30;73.40;63994.19;5000060;28;20195;-81
2023/10/20 09:58:50;;;;;;;10.98;4.72;;;;;;;19.45;73.29;64007.22;5001716;28;20237;-80
2023/10/20 10:01:17;;;;;;;6.85;4.68;;;;;;;19.41;73.22;64008.22;4993912;28;20199;-80
2023/10/20 10:04:00;;;;;;;6.78;4.57;;;;;;;19.63;70.89;64030.66;4996325;28;20218;-80
2023/10/20 10:06:35;;;;;;;6.30;4.57;;;;;;;19.53;66.80;64015.06;5003530;28;20229;-80
2023/10/20 10:09:04;;;;;;;8.68;5.20;;;;;;;19.53;68.90;64015.56;5000120;28;20282;-82
2023/10/20 10:11:34;;;;;;;5.20;4.53;;;;;;;19.58;70.76;64019.75;4995783;28;20208;-79
2023/10/20 10:14:04;;;;;;;10.38;4.45;;;;;;;19.73;67.80;64035.91;4992655;28;20225;-80
2023/10/20 10:16:32;;;;;;;4.93;4.47;;;;;;;19.59;66.94;64018.22;5018467;28;20194;-79
2023/10/20 10:19:08;;;;;;;4.97;4.38;;;;;;;19.54;68.64;64016.63;5012783;28;20234;-79
2023/10/20 10:21:39;;;;;;;5.25;4.72;;;;;;;19.34;70.15;63995.78;5020538;28;20416;-80
2023/10/20 10:24:14;;;;;;;8.73;4.40;;;;;;;19.38;71.14;63999.41;5002581;28;20469;-80
2023/10/20 10:26:50;;;;;;;7.28;4.45;;;;;;;19.39;71.22;64003.56;4991544;28;20439;-79
2023/10/20 10:29:18;;;;;;;7.13;4.22;;;;;;;19.40;72.84;63998.91;5001926;28;20543;-79
2023/10/20 10:31:47;;;;;;;8.77;4.85;;;;;;;19.31;71.58;63992.63;5007795;28;20200;-79
2023/10/20 10:34:14;;;;;;;9.75;5.32;;;;;;;19.21;72.82;63984.75;5013865;28;20225;-81
2023/10/20 10:36:49;;;;;;;4.90;4.28;;;;;;;19.07;72.00;63967.06;5010233;28;20390;-80
2023/10/20 10:39:27;;;;;;;5.30;4.78;;;;;;;19.07;74.60;63967.59;5010559;28;20249;-79
2023/10/20 10:41:54;;;;;;;7.47;4.65;;;;;;;19.06;74.01;63963.44;5009213;28;20565;-82
2023/10/20 10:44:23;;;;;;;7.78;4.30;;;;;;;19.08;73.97;63968.13;5011869;28;20237;-79
2023/10/20 10:46:51;;;;;;;5.35;4.28;;;;;;;19.02;73.71;63964.97;5009481;28;20250;-81
2023/10/20 10:49:18;;;;;;;5.32;4.45;;;;;;;19.01;73.92;63960.81;4995871;28;20219;-82
2023/10/20 10:51:48;;;;;;;7.00;4.05;;;;;;;19.01;72.71;63965.97;4993526;28;20195;-80
2023/10/20 10:54:17;;;;;;;5.45;4.65;;;;;;;18.99;73.55;63966.47;5011041;28;20226;-79
2023/10/20 10:56:44;;;;;;;5.20;4.10;;;;;;;18.99;74.69;63961.31;5014117;28;20391;-79
2023/10/20 10:59:12;;;;;;;7.32;3.92;;;;;;;19.02;74.28;63964.97;5004552;28;20227;-80
2023/10/20 11:01:40;;;;;;;4.97;4.45;;;;;;;19.04;74.98;63963.94;5013712;28;20245;-80
2023/10/20 11:04:10;;;;;;;6.57;4.35;;;;;;;19.12;75.88;63977.44;5011624;28;20286;-81
2023/10/20 11:06:38;;;;;;;4.38;4.07;;;;;;;19.22;75.57;63985.81;5009852;28;20245;-80
2023/10/20 11:09:11;;;;;;;8.25;4.60;;;;;;;19.29;73.22;63992.59;5012197;28;20257;-80
2023/10/20 11:11:47;;;;;;;7.00;4.80;;;;;;;19.28;71.12;63989.47;5006400;28;20198;-78
2023/10/20 11:14:18;;;;;;;5.78;5.18;;;;;;;19.30;71.37;63996.22;5012051;28;20219;-80
2023/10/20 11:16:47;;;;;;;10.18;4.28;;;;;;;19.26;69.70;63987.41;5014689;28;20268;-80
2023/10/20 11:19:14;;;;;;;5.85;5.22;;;;;;;19.31;68.39;63992.13;4999278;28;20239;-81
2023/10/20 11:21:46;;;;;;;6.00;4.45;;;;;;;19.42;69.16;64006.16;5000942;28;20203;-79
2023/10/20 11:24:25;;;;;;;8.73;4.13;;;;;;;19.63;72.92;64028.06;5000190;28;20230;-80
2023/10/20 11:27:01;;;;;;;7.03;4.22;;;;;;;19.90;70.35;64056.22;5010060;28;20235;-80
2023/10/20 11:29:29;;;;;;;13.23;4.00;;;;;;;20.26;66.18;64088.63;5006782;28;20219;-80
2023/10/20 11:31:58;;;;;;;7.40;3.78;;;;;;;20.57;64.73;64123.56;5007782;28;20206;-81
2023/10/20 11:34:26;;;;;;;9.48;3.22;;;;;;;20.80;61.19;64146.53;5012939;28;20238;-79
2023/10/20 11:36:54;;;;;;;4.70;3.40;;;;;;;21.08;58.20;64175.78;5007848;28;20214;-79
2023/10/20 11:39:27;;;;;;;4.50;3.55;;;;;;;21.33;55.70;64196.72;5011665;28;20223;-82
2023/10/20 11:41:54;;;;;;;4.93;3.45;;;;;;;21.59;54.02;64231.66;5013136;28;20429;-81
2023/10/20 11:44:24;;;;;;;9.45;4.03;;;;;;;21.86;53.37;64259.88;5013134;28;20226;-82
2023/10/20 11:46:52;;;;;;;11.35;3.42;;;;;;;22.01;52.08;64270.38;5012393;28;20404;-80
2023/10/20 11:49:19;;;;;;;12.18;4.30;;;;;;;22.19;49.91;64293.84;5014317;28;20211;-81
2023/10/20 11:51:46;;;;;;;6.43;4.05;;;;;;;22.34;49.39;64306.94;5014202;28;20203;-81
2023/10/20 11:54:13;;;;;;;8.90;3.08;;;;;;;22.34;49.62;64309.53;5007133;28;20219;-79
2023/10/20 11:56:42;;;;;;;16.90;5.82;;;;;;;22.32;50.25;64304.84;5002372;28;20221;-81